createdAt,value
2022-11-02T00:01:18.516Z,14.50
2022-11-02T00:06:20.281Z,14.50
2022-11-02T00:11:21.995Z,14.50
2022-11-02T00:16:26.666Z,14.50
2022-11-02T00:21:28.886Z,14.50
2022-11-02T00:26:32.419Z,14.40
2022-11-02T00:31:34.125Z,14.40
2022-11-02T00:36:35.904Z,14.40
2022-11-02T00:41:37.619Z,14.30
2022-11-02T00:46:39.323Z,14.40
2022-11-02T00:51:41.135Z,14.30
2022-11-02T00:56:42.894Z,14.30
2022-11-02T01:01:47.434Z,14.30
2022-11-02T01:06:49.253Z,14.30
2022-11-02T01:11:51.341Z,14.20
2022-11-02T01:16:53.142Z,14.20
2022-11-02T01:21:54.885Z,14.20
2022-11-02T01:26:56.800Z,14.10
2022-11-02T01:31:58.522Z,14.20
2022-11-02T01:37:00.251Z,14.10
2022-11-02T01:42:02.052Z,14.00
2022-11-02T01:47:19.146Z,13.90
2022-11-02T01:52:26.915Z,13.90
2022-11-02T01:57:31.583Z,13.90
2022-11-02T02:02:38.226Z,13.90
2022-11-02T02:07:40.742Z,13.80
2022-11-02T02:12:43.893Z,13.70
2022-11-02T02:18:01.223Z,13.80
2022-11-02T02:23:24.258Z,13.70
2022-11-02T02:28:41.043Z,13.70
2022-11-02T02:33:59.604Z,13.70
2022-11-02T02:39:05.133Z,13.70
2022-11-02T02:44:16.920Z,13.70
2022-11-02T02:49:23.295Z,13.60
2022-11-02T02:54:37.352Z,13.60
2022-11-02T02:59:44.641Z,13.50
2022-11-02T03:04:46.442Z,13.40
2022-11-02T03:09:52.659Z,13.40
2022-11-02T03:15:00.278Z,13.40
2022-11-02T03:20:10.955Z,13.40
2022-11-02T03:25:15.600Z,13.40
2022-11-02T03:30:23.200Z,13.40
2022-11-02T03:35:36.962Z,13.30
2022-11-02T03:40:46.484Z,13.30
2022-11-02T03:45:53.732Z,13.30
2022-11-02T03:50:58.244Z,13.30
2022-11-02T03:56:07.022Z,13.20
2022-11-02T04:01:09.705Z,13.20
2022-11-02T04:06:12.914Z,13.10
2022-11-02T04:11:34.250Z,13.10
2022-11-02T04:16:36.353Z,13.10
2022-11-02T04:21:38.188Z,13.10
2022-11-02T04:26:40.150Z,13.10
2022-11-02T04:31:42.042Z,13.10
2022-11-02T04:36:44.552Z,13.00
2022-11-02T04:41:46.991Z,13.00
2022-11-02T04:46:51.476Z,13.00
2022-11-02T04:51:53.167Z,13.00
2022-11-02T04:56:54.896Z,13.10
2022-11-02T05:01:56.773Z,13.00
2022-11-02T05:07:01.473Z,12.90
2022-11-02T05:12:05.308Z,12.90
2022-11-02T05:17:07.085Z,12.80
2022-11-02T05:22:08.825Z,12.70
2022-11-02T05:27:11.022Z,12.60
2022-11-02T05:32:12.895Z,12.60
2022-11-02T05:37:14.637Z,12.60
2022-11-02T05:42:16.355Z,12.50
2022-11-02T05:47:18.054Z,12.50
2022-11-02T05:52:19.798Z,12.40
2022-11-02T05:57:21.671Z,12.30
2022-11-02T06:02:25.594Z,12.50
2022-11-02T06:07:27.514Z,12.40
2022-11-02T06:12:29.230Z,12.30
2022-11-02T06:17:37.880Z,12.30
2022-11-02T06:22:41.461Z,12.30
2022-11-02T06:27:50.910Z,12.20
2022-11-02T06:32:54.132Z,12.10
2022-11-02T06:37:55.884Z,12.10
2022-11-02T06:48:20.653Z,12.10
2022-11-02T06:53:22.660Z,12.10
2022-11-02T06:58:24.937Z,12.10
2022-11-02T07:03:27.686Z,12.10
2022-11-02T07:08:29.729Z,12.00
2022-11-02T07:13:31.469Z,12.10
2022-11-02T07:18:33.508Z,12.10
2022-11-02T07:23:35.254Z,12.00
2022-11-02T07:28:38.343Z,12.10
2022-11-02T07:33:40.168Z,12.20
2022-11-02T07:38:42.797Z,12.30
2022-11-02T07:43:44.695Z,12.20
2022-11-02T07:48:47.284Z,12.10
2022-11-02T07:53:49.059Z,12.30
2022-11-02T07:58:50.778Z,12.30
2022-11-02T08:03:53.120Z,12.20
2022-11-02T08:08:55.307Z,12.30
2022-11-02T08:13:57.050Z,12.40
2022-11-02T08:18:59.402Z,12.50
2022-11-02T08:24:01.099Z,12.50
2022-11-02T08:29:03.306Z,12.50
2022-11-02T08:34:05.028Z,12.50
2022-11-02T08:39:06.879Z,12.50
2022-11-02T08:44:08.656Z,12.60
2022-11-02T08:49:10.404Z,12.70
2022-11-02T08:54:12.992Z,12.80
2022-11-02T08:59:14.748Z,12.90
2022-11-02T09:04:16.552Z,13.00
2022-11-02T09:09:18.363Z,13.00
2022-11-02T09:14:20.378Z,13.20
2022-11-02T09:19:22.336Z,13.30
2022-11-02T09:24:24.108Z,13.30
2022-11-02T09:29:25.884Z,13.40
2022-11-02T09:34:27.642Z,13.30
2022-11-02T09:39:29.429Z,13.30
2022-11-02T09:44:57.037Z,13.40
2022-11-02T09:50:02.293Z,13.60
2022-11-02T09:55:13.140Z,13.70
2022-11-02T10:00:15.868Z,13.70
2022-11-02T10:05:26.557Z,13.80
2022-11-02T10:10:31.287Z,14.00
2022-11-02T10:15:59.307Z,14.00
2022-11-02T10:21:07.057Z,14.10
2022-11-02T10:26:19.320Z,14.10
2022-11-02T10:31:30.866Z,14.20
2022-11-02T10:37:09.830Z,14.20
2022-11-02T10:42:11.524Z,14.40
2022-11-02T10:47:20.396Z,14.50
2022-11-02T10:52:22.544Z,14.60
2022-11-02T10:57:25.467Z,14.80
2022-11-02T11:02:27.379Z,14.80
2022-11-02T11:07:29.497Z,14.90
2022-11-02T11:12:38.840Z,15.10
2022-11-02T11:23:15.827Z,15.20
2022-11-02T11:28:27.265Z,15.40
2022-11-02T11:33:31.142Z,15.30
2022-11-02T11:38:33.792Z,15.50
2022-11-02T11:43:38.527Z,15.40
2022-11-02T11:48:53.887Z,15.10
2022-11-02T11:54:17.647Z,15.30
2022-11-02T11:59:23.995Z,15.40
2022-11-02T12:04:37.396Z,15.20
2022-11-02T12:09:51.187Z,15.10
2022-11-02T12:14:52.992Z,15.10
2022-11-02T12:19:54.887Z,15.20
2022-11-02T12:25:25.181Z,15.60
2022-11-02T12:30:37.504Z,15.90
2022-11-02T12:35:42.225Z,16.00
2022-11-02T12:40:52.882Z,15.70
2022-11-02T12:46:13.336Z,15.80
2022-11-02T12:51:31.396Z,15.70
2022-11-02T12:56:44.299Z,15.80
2022-11-02T13:01:47.484Z,16.10
2022-11-02T13:06:52.397Z,16.10
2022-11-02T13:12:03.455Z,16.30
2022-11-02T13:17:20.231Z,16.40
2022-11-02T13:22:27.249Z,16.70
2022-11-02T13:27:37.137Z,16.60
2022-11-02T13:32:48.932Z,16.60
2022-11-02T13:37:58.049Z,16.60
2022-11-02T13:43:06.570Z,16.50
2022-11-02T13:48:41.082Z,16.60
2022-11-02T13:53:51.528Z,16.50
2022-11-02T13:58:56.350Z,16.50
2022-11-02T14:04:04.872Z,16.90
2022-11-02T14:09:09.364Z,17.00
2022-11-02T14:14:11.093Z,16.60
2022-11-02T14:19:20.714Z,17.10
2022-11-02T14:24:36.068Z,17.70
2022-11-02T14:29:46.724Z,17.90
2022-11-02T14:34:54.705Z,18.10
2022-11-02T14:40:11.226Z,18.40
2022-11-02T14:45:15.783Z,17.70
2022-11-02T14:50:20.335Z,17.30
2022-11-02T14:55:31.199Z,17.50
2022-11-02T15:00:54.491Z,18.40
2022-11-02T15:06:27.178Z,18.80
2022-11-02T15:11:47.217Z,19.20
2022-11-02T15:16:48.998Z,19.10
2022-11-02T15:21:51.102Z,19.20
2022-11-02T15:26:59.018Z,18.10
2022-11-02T15:32:02.311Z,16.90
2022-11-02T15:37:04.962Z,16.80
2022-11-02T15:42:26.512Z,17.80
2022-11-02T15:47:39.161Z,16.70
2022-11-02T15:53:21.617Z,16.00
2022-11-02T15:58:38.722Z,15.60
2022-11-02T16:03:45.644Z,15.40
2022-11-02T16:08:47.369Z,15.10
2022-11-02T16:14:08.021Z,15.10
2022-11-02T16:19:20.162Z,14.80
2022-11-02T16:24:22.038Z,14.80
2022-11-02T16:29:33.424Z,14.80
2022-11-02T16:34:35.381Z,14.50
2022-11-02T16:39:39.676Z,14.40
2022-11-02T16:44:43.163Z,14.30
2022-11-02T16:49:51.049Z,14.20
2022-11-02T16:54:52.850Z,14.20
2022-11-02T17:00:05.190Z,14.10
2022-11-02T17:05:16.394Z,13.90
2022-11-02T17:10:25.393Z,13.90
2022-11-02T17:15:29.522Z,14.00
2022-11-02T17:20:31.357Z,13.80
2022-11-02T17:25:35.426Z,13.70
2022-11-02T17:30:37.127Z,13.70
2022-11-02T17:35:45.635Z,13.70
2022-11-02T17:40:52.182Z,13.60
2022-11-02T17:45:58.451Z,13.60
2022-11-02T17:51:00.323Z,13.60
2022-11-02T17:56:02.197Z,13.50
2022-11-02T18:01:05.357Z,13.50
2022-11-02T18:06:07.481Z,13.40
2022-11-02T18:11:09.410Z,13.40
2022-11-02T18:16:11.395Z,13.40
2022-11-02T18:21:13.244Z,13.30
2022-11-02T18:26:15.038Z,13.40
2022-11-02T18:31:16.897Z,13.30
2022-11-02T18:36:19.603Z,13.30
2022-11-02T18:41:31.163Z,13.30
2022-11-02T18:46:33.304Z,13.30
2022-11-02T18:51:35.312Z,13.20
2022-11-02T18:56:37.034Z,13.20
2022-11-02T19:01:38.961Z,13.20
2022-11-02T19:06:59.315Z,13.20
2022-11-02T19:12:01.044Z,13.10
2022-11-02T19:17:03.846Z,13.10
2022-11-02T19:22:05.802Z,13.10
2022-11-02T19:27:11.099Z,13.10
2022-11-02T19:32:13.234Z,13.00
2022-11-02T19:37:15.162Z,13.00
2022-11-02T19:42:16.999Z,13.00
2022-11-02T19:47:18.758Z,13.00
2022-11-02T19:52:20.520Z,12.90
2022-11-02T19:57:22.350Z,13.00
2022-11-02T20:02:24.265Z,13.00
2022-11-02T20:07:26.040Z,13.00
2022-11-02T20:12:28.005Z,13.10
2022-11-02T20:17:35.298Z,13.10
2022-11-02T20:22:44.455Z,13.00
2022-11-02T20:27:46.241Z,13.10
2022-11-02T20:32:49.194Z,13.10
2022-11-02T20:37:51.066Z,13.10
2022-11-02T20:42:52.770Z,13.10
2022-11-02T20:47:55.362Z,13.00
2022-11-02T20:52:58.767Z,13.00
2022-11-02T20:58:00.553Z,13.10
2022-11-02T21:03:02.573Z,13.20
2022-11-02T21:08:04.924Z,13.10
2022-11-02T21:13:25.563Z,13.10
2022-11-02T21:18:27.343Z,13.10
2022-11-02T21:23:29.345Z,13.00
2022-11-02T21:28:32.977Z,13.00
2022-11-02T21:33:35.723Z,13.00
2022-11-02T21:38:38.448Z,13.00
2022-11-02T21:43:40.211Z,13.00
2022-11-02T21:48:41.949Z,13.00
2022-11-02T21:53:45.058Z,13.00
2022-11-02T21:58:47.842Z,13.00
2022-11-02T22:03:49.859Z,13.00
2022-11-02T22:08:51.784Z,12.90
2022-11-02T22:13:55.062Z,13.00
2022-11-02T22:18:59.709Z,13.00
2022-11-02T22:24:02.224Z,12.90
2022-11-02T22:29:04.720Z,12.90
2022-11-02T22:34:08.389Z,12.90
2022-11-02T22:39:12.715Z,12.90
2022-11-02T22:44:20.388Z,12.90
2022-11-02T22:49:22.156Z,12.90
2022-11-02T22:54:23.978Z,12.80
2022-11-02T22:59:25.742Z,12.80
2022-11-02T23:04:27.502Z,12.70
2022-11-02T23:09:29.246Z,12.80
2022-11-02T23:14:31.128Z,12.80
2022-11-02T23:19:33.744Z,12.70
2022-11-02T23:24:54.126Z,12.70
2022-11-02T23:30:14.673Z,12.70
2022-11-02T23:35:35.070Z,12.70
2022-11-02T23:40:36.804Z,12.80
2022-11-02T23:45:38.557Z,12.80
2022-11-02T23:50:58.694Z,12.80
2022-11-02T23:56:19.645Z,12.80
